sensor_id;sensor_type;location;lat;lon;timestamp;pressure;altitude;pressure_sealevel;temperature;humidity
69411;BME280;56604;48.652;9.194;2023-04-03T00:00:55;96928.63;;;2.71;77.81
69411;BME280;56604;48.652;9.194;2023-04-03T00:03:21;96922.38;;;2.65;78.08
69411;BME280;56604;48.652;9.194;2023-04-03T00:05:46;96928.16;;;2.67;77.77
69411;BME280;56604;48.652;9.194;2023-04-03T00:08:11;96923.34;;;2.64;78.11
69411;BME280;56604;48.652;9.194;2023-04-03T00:10:37;96927.56;;;2.65;77.66
69411;BME280;56604;48.652;9.194;2023-04-03T00:13:04;96924.97;;;2.65;77.67
69411;BME280;56604;48.652;9.194;2023-04-03T00:15:29;96925.41;;;2.69;78.06
69411;BME280;56604;48.652;9.194;2023-04-03T00:17:55;96919.16;;;2.63;78.20
69411;BME280;56604;48.652;9.194;2023-04-03T00:20:20;96921.47;;;2.58;77.94
69411;BME280;56604;48.652;9.194;2023-04-03T00:22:46;96914.06;;;2.55;77.79
69411;BME280;56604;48.652;9.194;2023-04-03T00:25:11;96910.50;;;2.56;78.66
69411;BME280;56604;48.652;9.194;2023-04-03T00:27:37;96921.56;;;2.50;78.14
69411;BME280;56604;48.652;9.194;2023-04-03T00:30:03;96915.78;;;2.48;77.52
69411;BME280;56604;48.652;9.194;2023-04-03T00:32:29;96923.91;;;2.45;77.51
69411;BME280;56604;48.652;9.194;2023-04-03T00:34:54;96929.13;;;2.45;77.91
69411;BME280;56604;48.652;9.194;2023-04-03T00:37:19;96929.13;;;2.45;78.22
69411;BME280;56604;48.652;9.194;2023-04-03T00:39:45;96923.91;;;2.45;78.19
69411;BME280;56604;48.652;9.194;2023-04-03T00:42:10;96927.22;;;2.39;78.02
69411;BME280;56604;48.652;9.194;2023-04-03T00:47:07;96920.69;;;2.43;77.33
69411;BME280;56604;48.652;9.194;2023-04-03T00:49:35;96913.78;;;2.50;78.04
69411;BME280;56604;48.652;9.194;2023-04-03T00:52:01;96927.13;;;2.47;77.78
69411;BME280;56604;48.652;9.194;2023-04-03T00:54:26;96921.13;;;2.46;77.67
69411;BME280;56604;48.652;9.194;2023-04-03T00:56:53;96924.25;;;2.42;77.59
69411;BME280;56604;48.652;9.194;2023-04-03T00:59:24;96921.06;;;2.40;77.48
69411;BME280;56604;48.652;9.194;2023-04-03T01:01:53;96921.84;;;2.40;77.80
69411;BME280;56604;48.652;9.194;2023-04-03T01:04:35;96919.78;;;2.36;77.34
69411;BME280;56604;48.652;9.194;2023-04-03T01:07:07;96917.28;;;2.28;77.56
69411;BME280;56604;48.652;9.194;2023-04-03T01:09:34;96915.75;;;2.33;78.14
69411;BME280;56604;48.652;9.194;2023-04-03T01:12:21;96919.56;;;2.31;77.61
69411;BME280;56604;48.652;9.194;2023-04-03T01:14:49;96920.94;;;2.33;77.81
69411;BME280;56604;48.652;9.194;2023-04-03T01:17:50;96924.53;;;2.32;77.92
69411;BME280;56604;48.652;9.194;2023-04-03T01:26:03;96918.91;;;2.29;77.89
69411;BME280;56604;48.652;9.194;2023-04-03T01:28:34;96926.34;;;2.32;77.34
69411;BME280;56604;48.652;9.194;2023-04-03T01:33:36;96924.47;;;2.25;77.82
69411;BME280;56604;48.652;9.194;2023-04-03T01:36:02;96925.91;;;2.28;78.19
69411;BME280;56604;48.652;9.194;2023-04-03T01:38:28;96920.88;;;2.27;78.23
69411;BME280;56604;48.652;9.194;2023-04-03T01:40:53;96912.09;;;2.28;78.41
69411;BME280;56604;48.652;9.194;2023-04-03T01:43:18;96924.81;;;2.22;78.20
69411;BME280;56604;48.652;9.194;2023-04-03T01:45:44;96921.59;;;2.20;78.29
69411;BME280;56604;48.652;9.194;2023-04-03T01:48:09;96916.41;;;2.20;77.97
69411;BME280;56604;48.652;9.194;2023-04-03T01:50:34;96926.78;;;2.20;78.13
69411;BME280;56604;48.652;9.194;2023-04-03T01:53:00;96925.19;;;2.19;78.25
69411;BME280;56604;48.652;9.194;2023-04-03T01:55:25;96920.09;;;2.11;78.08
69411;BME280;56604;48.652;9.194;2023-04-03T01:57:50;96922.31;;;2.14;77.95
69411;BME280;56604;48.652;9.194;2023-04-03T02:00:16;96918.38;;;2.18;78.17
69411;BME280;56604;48.652;9.194;2023-04-03T02:02:41;96919.38;;;2.17;77.65
69411;BME280;56604;48.652;9.194;2023-04-03T02:05:07;96923.38;;;2.20;77.20
69411;BME280;56604;48.652;9.194;2023-04-03T02:07:32;96923.91;;;2.15;77.49
69411;BME280;56604;48.652;9.194;2023-04-03T02:09:57;96929.47;;;2.12;77.18
69411;BME280;56604;48.652;9.194;2023-04-03T02:12:23;96920.09;;;2.11;77.97
69411;BME280;56604;48.652;9.194;2023-04-03T02:14:48;96923.56;;;2.18;77.68
69411;BME280;56604;48.652;9.194;2023-04-03T02:17:14;96921.25;;;2.23;77.29
69411;BME280;56604;48.652;9.194;2023-04-03T02:19:40;96923.19;;;2.21;77.22
69411;BME280;56604;48.652;9.194;2023-04-03T02:22:05;96926.78;;;2.20;76.94
69411;BME280;56604;48.652;9.194;2023-04-03T02:24:31;96927.41;;;2.22;77.12
69411;BME280;56604;48.652;9.194;2023-04-03T02:26:56;96925.25;;;2.26;77.50
69411;BME280;56604;48.652;9.194;2023-04-03T02:29:22;96929.03;;;2.23;77.16
69411;BME280;56604;48.652;9.194;2023-04-03T02:31:48;96923.56;;;2.18;76.73
69411;BME280;56604;48.652;9.194;2023-04-03T02:34:14;96922.41;;;2.21;76.73
69411;BME280;56604;48.652;9.194;2023-04-03T02:36:39;96917.66;;;2.24;76.00
69411;BME280;56604;48.652;9.194;2023-04-03T02:39:05;96934.56;;;2.20;76.26
69411;BME280;56604;48.652;9.194;2023-04-03T02:41:30;96926.16;;;2.18;75.74
69411;BME280;56604;48.652;9.194;2023-04-03T02:44:01;96924.72;;;2.16;76.13
69411;BME280;56604;48.652;9.194;2023-04-03T02:46:26;96929.91;;;2.16;76.09
69411;BME280;56604;48.652;9.194;2023-04-03T02:48:52;96928.31;;;2.15;76.21
69411;BME280;56604;48.652;9.194;2023-04-03T02:51:17;96926.72;;;2.14;75.89
69411;BME280;56604;48.652;9.194;2023-04-03T02:53:42;96928.81;;;2.10;75.80
69411;BME280;56604;48.652;9.194;2023-04-03T02:56:08;96931.88;;;2.14;75.82
69411;BME280;56604;48.652;9.194;2023-04-03T02:58:33;96933.03;;;2.11;76.02
69411;BME280;56604;48.652;9.194;2023-04-03T03:00:59;96928.66;;;2.12;76.07
69411;BME280;56604;48.652;9.194;2023-04-03T03:03:24;96927.88;;;2.11;76.14
69411;BME280;56604;48.652;9.194;2023-04-03T03:05:50;96927.88;;;2.11;75.89
69411;BME280;56604;48.652;9.194;2023-04-03T03:08:15;96932.25;;;2.11;76.56
69411;BME280;56604;48.652;9.194;2023-04-03T03:10:40;96925.53;;;2.16;77.00
69411;BME280;56604;48.652;9.194;2023-04-03T03:13:05;96924.63;;;2.09;76.30
69411;BME280;56604;48.652;9.194;2023-04-03T03:15:31;96918.09;;;2.13;76.17
69411;BME280;56604;48.652;9.194;2023-04-03T03:17:56;96921.50;;;2.14;76.70
69411;BME280;56604;48.652;9.194;2023-04-03T03:20:21;96929.66;;;2.11;75.98
69411;BME280;56604;48.652;9.194;2023-04-03T03:22:47;96926.78;;;2.06;75.94
69411;BME280;56604;48.652;9.194;2023-04-03T03:25:12;96925.44;;;2.10;76.23
69411;BME280;56604;48.652;9.194;2023-04-03T03:27:37;96915.25;;;2.08;75.98
69411;BME280;56604;48.652;9.194;2023-04-03T03:30:04;96918.66;;;2.09;76.27
69411;BME280;56604;48.652;9.194;2023-04-03T03:32:29;96919.59;;;2.08;75.27
69411;BME280;56604;48.652;9.194;2023-04-03T03:34:55;96919.59;;;2.08;75.81
69411;BME280;56604;48.652;9.194;2023-04-03T03:37:20;96923.38;;;2.05;75.41
69411;BME280;56604;48.652;9.194;2023-04-03T03:39:45;96920.59;;;2.07;76.09
69411;BME280;56604;48.652;9.194;2023-04-03T03:42:11;96915.69;;;2.12;75.86
69411;BME280;56604;48.652;9.194;2023-04-03T03:44:36;96917.84;;;2.08;75.51
69411;BME280;56604;48.652;9.194;2023-04-03T03:47:01;96921.03;;;2.10;75.36
69411;BME280;56604;48.652;9.194;2023-04-03T03:49:28;96917.84;;;2.08;75.82
69411;BME280;56604;48.652;9.194;2023-04-03T03:51:53;96919.44;;;2.09;75.83
69411;BME280;56604;48.652;9.194;2023-04-03T03:54:18;96912.31;;;2.11;75.80
69411;BME280;56604;48.652;9.194;2023-04-03T03:56:44;96921.41;;;2.07;75.78
69411;BME280;56604;48.652;9.194;2023-04-03T03:59:11;96921.41;;;2.07;74.77
69411;BME280;56604;48.652;9.194;2023-04-03T04:01:37;96912.31;;;2.11;75.12
69411;BME280;56604;48.652;9.194;2023-04-03T04:04:02;96921.88;;;2.11;74.94
69411;BME280;56604;48.652;9.194;2023-04-03T04:06:28;96919.44;;;2.09;75.57
69411;BME280;56604;48.652;9.194;2023-04-03T04:08:53;96916.84;;;2.09;75.59
69411;BME280;56604;48.652;9.194;2023-04-03T04:11:19;96923.63;;;2.10;75.66
69411;BME280;56604;48.652;9.194;2023-04-03T04:13:44;96920.69;;;2.13;75.88
69411;BME280;56604;48.652;9.194;2023-04-03T04:16:10;96919.09;;;2.12;76.73
69411;BME280;56604;48.652;9.194;2023-04-03T04:18:35;96929.09;;;2.15;76.05
69411;BME280;56604;48.652;9.194;2023-04-03T04:21:01;96922.31;;;2.14;76.22
69411;BME280;56604;48.652;9.194;2023-04-03T04:23:26;96923.13;;;2.15;76.37
69411;BME280;56604;48.652;9.194;2023-04-03T04:25:51;96926.88;;;2.12;74.98
69411;BME280;56604;48.652;9.194;2023-04-03T04:28:17;96926.22;;;2.10;75.75
69411;BME280;56604;48.652;9.194;2023-04-03T04:30:43;96919.88;;;2.13;75.59
69411;BME280;56604;48.652;9.194;2023-04-03T04:33:08;96922.13;;;2.16;74.36
69411;BME280;56604;48.652;9.194;2023-04-03T04:35:34;96922.31;;;2.14;73.95
69411;BME280;56604;48.652;9.194;2023-04-03T04:37:59;96920.34;;;2.16;73.81
69411;BME280;56604;48.652;9.194;2023-04-03T04:40:25;96920.00;;;2.19;73.99
69411;BME280;56604;48.652;9.194;2023-04-03T04:42:50;96920.16;;;2.18;73.26
69411;BME280;56604;48.652;9.194;2023-04-03T04:45:16;96925.19;;;2.19;72.53
69411;BME280;56604;48.652;9.194;2023-04-03T04:47:41;96922.94;;;2.16;72.73
69411;BME280;56604;48.652;9.194;2023-04-03T04:50:07;96917.28;;;2.13;73.03
69411;BME280;56604;48.652;9.194;2023-04-03T04:52:33;96925.53;;;2.16;71.74
69411;BME280;56604;48.652;9.194;2023-04-03T04:54:58;96933.94;;;2.18;71.40
69411;BME280;56604;48.652;9.194;2023-04-03T04:57:24;96926.78;;;2.20;71.10
69411;BME280;56604;48.652;9.194;2023-04-03T04:59:49;96931.25;;;2.27;71.52
69411;BME280;56604;48.652;9.194;2023-04-03T05:02:14;96928.50;;;2.28;71.26
69411;BME280;56604;48.652;9.194;2023-04-03T05:04:40;96921.25;;;2.23;69.79
69411;BME280;56604;48.652;9.194;2023-04-03T05:07:05;96939.22;;;2.25;69.82
69411;BME280;56604;48.652;9.194;2023-04-03T05:09:30;96935.13;;;2.31;70.78
69411;BME280;56604;48.652;9.194;2023-04-03T05:11:56;96931.25;;;2.27;68.63
69411;BME280;56604;48.652;9.194;2023-04-03T05:14:21;96939.66;;;2.29;69.56
69411;BME280;56604;48.652;9.194;2023-04-03T05:16:47;96943.84;;;2.30;67.99
69411;BME280;56604;48.652;9.194;2023-04-03T05:19:13;96941.19;;;2.38;67.50
69411;BME280;56604;48.652;9.194;2023-04-03T05:21:38;96940.91;;;2.33;67.53
69411;BME280;56604;48.652;9.194;2023-04-03T05:24:04;96944.06;;;2.43;67.45
69411;BME280;56604;48.652;9.194;2023-04-03T05:26:30;96943.06;;;2.44;68.39
69411;BME280;56604;48.652;9.194;2023-04-03T05:28:55;96937.97;;;2.51;68.05
69411;BME280;56604;48.652;9.194;2023-04-03T05:31:21;96954.69;;;2.48;68.05
69411;BME280;56604;48.652;9.194;2023-04-03T05:33:48;96954.88;;;2.46;66.94
69411;BME280;56604;48.652;9.194;2023-04-03T05:36:13;96955.13;;;2.52;68.46
69411;BME280;56604;48.652;9.194;2023-04-03T05:38:39;96954.34;;;2.51;67.57
69411;BME280;56604;48.652;9.194;2023-04-03T05:41:04;96954.59;;;2.56;66.92
69411;BME280;56604;48.652;9.194;2023-04-03T05:43:30;96943.03;;;2.59;67.28
69411;BME280;56604;48.652;9.194;2023-04-03T05:45:55;96945.19;;;2.55;67.28
69411;BME280;56604;48.652;9.194;2023-04-03T05:48:21;96947.16;;;2.53;66.50
69411;BME280;56604;48.652;9.194;2023-04-03T05:50:46;96953.97;;;2.54;66.54
69411;BME280;56604;48.652;9.194;2023-04-03T05:53:26;96954.03;;;2.61;67.67
69411;BME280;56604;48.652;9.194;2023-04-03T05:55:52;96965.94;;;2.55;67.81
69411;BME280;56604;48.652;9.194;2023-04-03T05:58:19;96961.75;;;2.54;67.26
69411;BME280;56604;48.652;9.194;2023-04-03T06:00:44;96963.00;;;2.58;68.29
69411;BME280;56604;48.652;9.194;2023-04-03T06:03:10;96968.91;;;2.67;69.15
69411;BME280;56604;48.652;9.194;2023-04-03T06:05:36;96966.22;;;2.60;67.49
69411;BME280;56604;48.652;9.194;2023-04-03T06:08:02;96968.75;;;2.54;67.60
69411;BME280;56604;48.652;9.194;2023-04-03T06:10:28;96977.06;;;2.49;67.59
69411;BME280;56604;48.652;9.194;2023-04-03T06:12:54;96966.84;;;2.47;67.47
69411;BME280;56604;48.652;9.194;2023-04-03T06:15:20;96976.41;;;2.47;68.53
69411;BME280;56604;48.652;9.194;2023-04-03T06:17:46;96974.72;;;2.54;68.32
69411;BME280;56604;48.652;9.194;2023-04-03T06:20:12;96980.66;;;2.48;68.37
69411;BME280;56604;48.652;9.194;2023-04-03T06:22:37;96993.63;;;2.48;67.19
69411;BME280;56604;48.652;9.194;2023-04-03T06:25:03;96977.13;;;2.56;68.15
69411;BME280;56604;48.652;9.194;2023-04-03T06:27:30;96973.47;;;2.50;67.09
69411;BME280;56604;48.652;9.194;2023-04-03T06:29:55;96980.28;;;2.51;67.33
69411;BME280;56604;48.652;9.194;2023-04-03T06:32:20;96985.66;;;2.50;67.68
69411;BME280;56604;48.652;9.194;2023-04-03T06:34:45;96982.78;;;2.59;67.91
69411;BME280;56604;48.652;9.194;2023-04-03T06:37:19;96994.69;;;2.68;67.59
69411;BME280;56604;48.652;9.194;2023-04-03T06:39:46;96984.41;;;2.60;67.35
69411;BME280;56604;48.652;9.194;2023-04-03T06:42:11;97001.84;;;2.66;67.29
69411;BME280;56604;48.652;9.194;2023-04-03T06:44:37;96990.47;;;2.67;66.85
69411;BME280;56604;48.652;9.194;2023-04-03T06:47:02;96985.28;;;2.67;66.72
69411;BME280;56604;48.652;9.194;2023-04-03T06:49:27;97000.22;;;2.80;67.14
69411;BME280;56604;48.652;9.194;2023-04-03T06:51:54;96986.38;;;3.09;66.42
69411;BME280;56604;48.652;9.194;2023-04-03T06:54:19;96973.38;;;3.09;66.36
69411;BME280;56604;48.652;9.194;2023-04-03T06:56:44;96982.91;;;3.02;66.39
69411;BME280;56604;48.652;9.194;2023-04-03T06:59:11;96987.66;;;2.99;66.83
69411;BME280;56604;48.652;9.194;2023-04-03T07:01:38;96990.09;;;2.85;66.53
69411;BME280;56604;48.652;9.194;2023-04-03T07:04:04;96996.38;;;2.91;66.99
69411;BME280;56604;48.652;9.194;2023-04-03T07:06:30;96997.59;;;2.95;66.56
69411;BME280;56604;48.652;9.194;2023-04-03T07:08:57;97002.63;;;2.97;67.85
69411;BME280;56604;48.652;9.194;2023-04-03T07:11:23;97004.75;;;2.93;67.22
69411;BME280;56604;48.652;9.194;2023-04-03T07:13:49;96992.84;;;3.13;66.70
69411;BME280;56604;48.652;9.194;2023-04-03T07:16:15;96993.34;;;3.45;65.99
69411;BME280;56604;48.652;9.194;2023-04-03T07:18:40;97014.63;;;3.55;66.41
69411;BME280;56604;48.652;9.194;2023-04-03T07:21:06;97002.38;;;3.49;66.04
69411;BME280;56604;48.652;9.194;2023-04-03T07:23:32;97011.19;;;3.48;66.40
69411;BME280;56604;48.652;9.194;2023-04-03T07:25:58;97014.94;;;3.46;66.19
69411;BME280;56604;48.652;9.194;2023-04-03T07:28:24;96998.16;;;3.27;67.47
69411;BME280;56604;48.652;9.194;2023-04-03T07:31:10;97004.25;;;3.55;67.35
69411;BME280;56604;48.652;9.194;2023-04-03T07:33:37;97010.28;;;3.41;66.53
69411;BME280;56604;48.652;9.194;2023-04-03T07:36:04;97007.84;;;3.54;66.66
69411;BME280;56604;48.652;9.194;2023-04-03T07:38:32;97006.25;;;3.53;66.72
69411;BME280;56604;48.652;9.194;2023-04-03T07:40:57;97009.53;;;3.62;67.56
69411;BME280;56604;48.652;9.194;2023-04-03T07:43:23;97009.63;;;3.75;66.38
69411;BME280;56604;48.652;9.194;2023-04-03T07:45:50;97016.53;;;4.11;64.47
69411;BME280;56604;48.652;9.194;2023-04-03T07:48:18;97018.88;;;4.27;64.99
69411;BME280;56604;48.652;9.194;2023-04-03T07:50:44;97026.84;;;4.26;64.43
69411;BME280;56604;48.652;9.194;2023-04-03T07:53:09;97019.09;;;4.04;64.71
69411;BME280;56604;48.652;9.194;2023-04-03T07:55:36;97036.31;;;4.05;65.45
69411;BME280;56604;48.652;9.194;2023-04-03T07:58:08;97021.56;;;4.13;65.60
69411;BME280;56604;48.652;9.194;2023-04-03T08:00:34;97017.09;;;4.06;64.41
69411;BME280;56604;48.652;9.194;2023-04-03T08:03:00;97026.22;;;4.24;65.30
69411;BME280;56604;48.652;9.194;2023-04-03T08:05:26;97023.28;;;4.27;64.24
69411;BME280;56604;48.652;9.194;2023-04-03T08:07:52;97016.19;;;4.49;63.59
69411;BME280;56604;48.652;9.194;2023-04-03T08:10:17;97041.88;;;4.02;63.88
69411;BME280;56604;48.652;9.194;2023-04-03T08:12:45;97021.19;;;4.16;65.46
69411;BME280;56604;48.652;9.194;2023-04-03T08:15:11;97024.84;;;4.21;64.75
69411;BME280;56604;48.652;9.194;2023-04-03T08:17:36;97027.53;;;4.69;64.43
69411;BME280;56604;48.652;9.194;2023-04-03T08:20:04;97019.28;;;4.66;64.80
69411;BME280;56604;48.652;9.194;2023-04-03T08:22:30;97019.59;;;4.84;64.62
69411;BME280;56604;48.652;9.194;2023-04-03T08:24:55;97031.09;;;4.27;64.43
69411;BME280;56604;48.652;9.194;2023-04-03T08:27:21;97029.16;;;4.14;65.81
69411;BME280;56604;48.652;9.194;2023-04-03T08:29:46;97031.88;;;4.27;65.77
69411;BME280;56604;48.652;9.194;2023-04-03T08:32:12;97037.75;;;4.36;66.12
69411;BME280;56604;48.652;9.194;2023-04-03T08:34:37;97023.69;;;4.31;65.31
69411;BME280;56604;48.652;9.194;2023-04-03T08:37:04;97039.72;;;4.34;65.26
69411;BME280;56604;48.652;9.194;2023-04-03T08:39:30;97038.81;;;4.48;64.11
69411;BME280;56604;48.652;9.194;2023-04-03T08:41:58;97033.56;;;4.70;63.24
69411;BME280;56604;48.652;9.194;2023-04-03T08:47:40;97039.69;;;4.56;63.42
69411;BME280;56604;48.652;9.194;2023-04-03T08:49:56;97045.19;;;4.39;64.57
69411;BME280;56604;48.652;9.194;2023-04-03T08:52:44;97035.69;;;4.60;63.51
69411;BME280;56604;48.652;9.194;2023-04-03T08:55:33;97026.50;;;5.05;64.51
69411;BME280;56604;48.652;9.194;2023-04-03T08:58:03;97029.25;;;5.52;63.68
69411;BME280;56604;48.652;9.194;2023-04-03T09:00:48;97032.25;;;5.35;59.70
69411;BME280;56604;48.652;9.194;2023-04-03T09:03:17;97043.81;;;5.19;61.61
69411;BME280;56604;48.652;9.194;2023-04-03T09:08:41;97038.19;;;5.16;62.45
69411;BME280;56604;48.652;9.194;2023-04-03T09:11:26;97034.56;;;5.10;64.06
69411;BME280;56604;48.652;9.194;2023-04-03T09:14:07;97042.78;;;4.72;62.40
69411;BME280;56604;48.652;9.194;2023-04-03T09:22:21;97046.22;;;4.80;62.41
69411;BME280;56604;48.652;9.194;2023-04-03T09:25:15;97038.69;;;4.57;64.98
69411;BME280;56604;48.652;9.194;2023-04-03T09:27:41;97054.97;;;4.37;63.48
69411;BME280;56604;48.652;9.194;2023-04-03T09:30:13;97052.13;;;4.32;63.77
69411;BME280;56604;48.652;9.194;2023-04-03T09:32:39;97040.72;;;4.33;62.89
69411;BME280;56604;48.652;9.194;2023-04-03T09:35:24;97031.41;;;4.45;64.64
69411;BME280;56604;48.652;9.194;2023-04-03T09:37:51;97036.75;;;4.72;63.38
69411;BME280;56604;48.652;9.194;2023-04-03T09:40:31;97032.91;;;5.03;62.39
69411;BME280;56604;48.652;9.194;2023-04-03T09:43:02;97037.22;;;5.24;60.96
69411;BME280;56604;48.652;9.194;2023-04-03T09:45:35;97037.78;;;5.19;59.04
69411;BME280;56604;48.652;9.194;2023-04-03T09:50:58;97025.56;;;5.26;55.84
69411;BME280;56604;48.652;9.194;2023-04-03T09:53:40;97041.81;;;5.22;54.84
69411;BME280;56604;48.652;9.194;2023-04-03T09:58:42;97035.25;;;5.32;57.26
69411;BME280;56604;48.652;9.194;2023-04-03T10:04:19;97033.97;;;5.15;52.42
69411;BME280;56604;48.652;9.194;2023-04-03T10:06:53;97029.91;;;5.06;52.87
69411;BME280;56604;48.652;9.194;2023-04-03T10:09:30;97026.25;;;5.41;55.29
69411;BME280;56604;48.652;9.194;2023-04-03T10:12:11;97022.69;;;5.69;54.76
69411;BME280;56604;48.652;9.194;2023-04-03T10:15:01;97035.44;;;5.37;52.89
69411;BME280;56604;48.652;9.194;2023-04-03T10:17:47;97016.31;;;5.17;52.41
69411;BME280;56604;48.652;9.194;2023-04-03T10:25:47;97027.44;;;5.46;50.04
69411;BME280;56604;48.652;9.194;2023-04-03T10:28:23;97027.50;;;5.59;51.89
69411;BME280;56604;48.652;9.194;2023-04-03T10:31:04;97016.03;;;5.53;52.05
69411;BME280;56604;48.652;9.194;2023-04-03T10:33:44;97013.06;;;5.70;52.26
69411;BME280;56604;48.652;9.194;2023-04-03T10:45:19;97002.22;;;5.73;52.80
69411;BME280;56604;48.652;9.194;2023-04-03T10:47:55;97008.09;;;5.95;52.06
69411;BME280;56604;48.652;9.194;2023-04-03T10:50:38;97016.25;;;5.65;50.55
69411;BME280;56604;48.652;9.194;2023-04-03T10:55:43;97014.66;;;5.64;54.30
69411;BME280;56604;48.652;9.194;2023-04-03T10:58:23;97015.81;;;5.41;55.08
69411;BME280;56604;48.652;9.194;2023-04-03T11:00:53;97020.50;;;5.05;56.56
69411;BME280;56604;48.652;9.194;2023-04-03T11:03:29;97022.88;;;5.00;56.69
69411;BME280;56604;48.652;9.194;2023-04-03T11:05:57;97022.81;;;4.86;56.50
69411;BME280;56604;48.652;9.194;2023-04-03T11:11:08;97025.41;;;4.86;57.02
69411;BME280;56604;48.652;9.194;2023-04-03T11:13:40;97018.78;;;4.84;57.65
69411;BME280;56604;48.652;9.194;2023-04-03T11:16:07;97020.28;;;5.00;57.64
69411;BME280;56604;48.652;9.194;2023-04-03T11:18:49;97021.28;;;4.99;57.29
69411;BME280;56604;48.652;9.194;2023-04-03T11:21:21;97025.47;;;4.93;58.68
69411;BME280;56604;48.652;9.194;2023-04-03T11:23:51;97018.69;;;4.99;56.83
69411;BME280;56604;48.652;9.194;2023-04-03T11:26:20;97016.00;;;4.85;56.92
69411;BME280;56604;48.652;9.194;2023-04-03T11:28:53;97016.47;;;4.95;58.61
69411;BME280;56604;48.652;9.194;2023-04-03T11:36:49;97015.53;;;4.75;57.76
69411;BME280;56604;48.652;9.194;2023-04-03T11:39:22;97020.75;;;4.75;57.41
69411;BME280;56604;48.652;9.194;2023-04-03T11:41:48;97011.63;;;4.92;56.39
69411;BME280;56604;48.652;9.194;2023-04-03T11:44:34;97008.50;;;5.17;55.43
69411;BME280;56604;48.652;9.194;2023-04-03T11:47:02;97012.94;;;5.23;56.29
69411;BME280;56604;48.652;9.194;2023-04-03T11:52:55;97009.75;;;5.21;54.24
69411;BME280;56604;48.652;9.194;2023-04-03T12:03:33;97003.03;;;4.99;54.54
69411;BME280;56604;48.652;9.194;2023-04-03T12:16:30;97007.13;;;4.73;52.55
69411;BME280;56604;48.652;9.194;2023-04-03T12:19:02;96992.09;;;4.75;52.64
69411;BME280;56604;48.652;9.194;2023-04-03T12:26:34;96991.94;;;4.83;53.06
69411;BME280;56604;48.652;9.194;2023-04-03T12:31:52;96978.88;;;5.31;52.54
69411;BME280;56604;48.652;9.194;2023-04-03T12:39:54;96974.13;;;5.61;49.46
69411;BME280;56604;48.652;9.194;2023-04-03T12:42:35;96984.59;;;5.81;51.63
69411;BME280;56604;48.652;9.194;2023-04-03T12:45:22;96970.94;;;5.79;51.53
69411;BME280;56604;48.652;9.194;2023-04-03T12:47:52;96972.13;;;5.70;50.32
69411;BME280;56604;48.652;9.194;2023-04-03T12:50:28;96985.31;;;5.49;50.46
69411;BME280;56604;48.652;9.194;2023-04-03T12:53:10;96976.09;;;5.39;50.06
69411;BME280;56604;48.652;9.194;2023-04-03T12:55:37;96981.06;;;5.21;50.04
69411;BME280;56604;48.652;9.194;2023-04-03T12:58:23;96974.47;;;5.25;50.22
69411;BME280;56604;48.652;9.194;2023-04-03T13:01:22;96982.31;;;5.38;49.07
69411;BME280;56604;48.652;9.194;2023-04-03T13:03:51;96967.88;;;5.43;49.83
69411;BME280;56604;48.652;9.194;2023-04-03T13:06:21;96974.91;;;5.49;49.37
69411;BME280;56604;48.652;9.194;2023-04-03T13:08:56;96957.69;;;5.68;49.85
69411;BME280;56604;48.652;9.194;2023-04-03T13:11:23;96958.47;;;5.61;50.29
69411;BME280;56604;48.652;9.194;2023-04-03T13:13:59;96964.50;;;5.89;50.14
69411;BME280;56604;48.652;9.194;2023-04-03T13:16:25;96955.28;;;5.93;48.41
69411;BME280;56604;48.652;9.194;2023-04-03T13:18:55;96959.50;;;5.67;49.01
69411;BME280;56604;48.652;9.194;2023-04-03T13:21:29;96952.47;;;5.88;49.42
69411;BME280;56604;48.652;9.194;2023-04-03T13:23:58;96948.84;;;5.89;48.66
69411;BME280;56604;48.652;9.194;2023-04-03T13:26:26;96958.88;;;5.65;49.11
69411;BME280;56604;48.652;9.194;2023-04-03T13:28:55;96957.66;;;5.74;48.05
69411;BME280;56604;48.652;9.194;2023-04-03T13:31:28;96957.09;;;5.92;50.42
69411;BME280;56604;48.652;9.194;2023-04-03T13:34:10;96969.72;;;5.62;49.16
69411;BME280;56604;48.652;9.194;2023-04-03T13:36:50;96957.84;;;5.46;49.38
69411;BME280;56604;48.652;9.194;2023-04-03T13:39:29;96955.22;;;5.39;49.09
69411;BME280;56604;48.652;9.194;2023-04-03T13:42:15;96958.03;;;5.31;49.79
69411;BME280;56604;48.652;9.194;2023-04-03T13:44:42;96957.00;;;5.12;51.54
69411;BME280;56604;48.652;9.194;2023-04-03T13:49:40;96956.81;;;5.27;52.94
69411;BME280;56604;48.652;9.194;2023-04-03T13:52:28;96949.66;;;5.56;52.70
69411;BME280;56604;48.652;9.194;2023-04-03T13:54:57;96956.09;;;5.67;51.25
69411;BME280;56604;48.652;9.194;2023-04-03T13:57:23;96947.06;;;5.96;50.68
69411;BME280;56604;48.652;9.194;2023-04-03T13:59:48;96964.09;;;5.92;49.50
69411;BME280;56604;48.652;9.194;2023-04-03T14:02:30;96950.03;;;5.59;49.57
69411;BME280;56604;48.652;9.194;2023-04-03T14:04:58;96942.03;;;5.88;49.69
69411;BME280;56604;48.652;9.194;2023-04-03T14:07:27;96946.06;;;6.10;50.00
69411;BME280;56604;48.652;9.194;2023-04-03T14:09:53;96952.28;;;6.09;47.78
69411;BME280;56604;48.652;9.194;2023-04-03T14:12:34;96948.06;;;5.95;46.78
69411;BME280;56604;48.652;9.194;2023-04-03T14:15:03;96943.66;;;5.75;48.18
69411;BME280;56604;48.652;9.194;2023-04-03T14:17:29;96949.25;;;5.85;48.53
69411;BME280;56604;48.652;9.194;2023-04-03T14:19:57;96941.41;;;5.66;47.47
69411;BME280;56604;48.652;9.194;2023-04-03T14:22:28;96939.84;;;5.78;48.38
69411;BME280;56604;48.652;9.194;2023-04-03T14:24:54;96945.63;;;5.73;47.33
69411;BME280;56604;48.652;9.194;2023-04-03T14:27:24;96935.59;;;5.90;47.27
69411;BME280;56604;48.652;9.194;2023-04-03T14:29:51;96928.38;;;6.05;46.64
69411;BME280;56604;48.652;9.194;2023-04-03T14:32:20;96926.53;;;6.26;47.44
69411;BME280;56604;48.652;9.194;2023-04-03T14:34:47;96930.00;;;6.06;46.71
69411;BME280;56604;48.652;9.194;2023-04-03T14:37:16;96942.47;;;5.98;48.03
69411;BME280;56604;48.652;9.194;2023-04-03T14:39:42;96938.03;;;5.78;48.41
69411;BME280;56604;48.652;9.194;2023-04-03T14:42:17;96949.44;;;5.51;45.88
69411;BME280;56604;48.652;9.194;2023-04-03T14:44:43;96932.78;;;5.65;48.42
69411;BME280;56604;48.652;9.194;2023-04-03T14:47:14;96934.41;;;5.79;47.23
69411;BME280;56604;48.652;9.194;2023-04-03T14:49:41;96924.38;;;5.76;46.09
69411;BME280;56604;48.652;9.194;2023-04-03T14:52:18;96930.00;;;5.67;45.49